createdAt,value
2022-11-12T00:00:23.428Z,101538.88
2022-11-12T00:03:14.337Z,101550.13
2022-11-12T00:06:01.622Z,101557.91
2022-11-12T00:08:49.285Z,101557.00
2022-11-12T00:11:36.209Z,101555.19
2022-11-12T00:14:23.470Z,101546.56
2022-11-12T00:17:10.613Z,101549.16
2022-11-12T00:19:58.854Z,101548.31
2022-11-12T00:22:45.953Z,101557.72
2022-11-12T00:25:33.460Z,101560.31
2022-11-12T00:28:20.430Z,101564.69
2022-11-12T00:31:12.305Z,101568.06
2022-11-12T00:33:59.969Z,101566.25
2022-11-12T00:36:48.609Z,101568.84
2022-11-12T00:39:38.293Z,101560.00
2022-11-12T00:42:25.465Z,101567.66
2022-11-12T00:45:12.538Z,101572.81
2022-11-12T00:47:59.713Z,101570.13
2022-11-12T00:50:47.128Z,101570.91
2022-11-12T00:53:35.899Z,101576.88
2022-11-12T00:56:22.875Z,101575.00
2022-11-12T00:59:09.945Z,101586.13
2022-11-12T01:01:57.162Z,101580.97
2022-11-12T01:04:44.269Z,101579.94
2022-11-12T01:07:35.053Z,101580.75
2022-11-12T01:10:24.276Z,101591.13
2022-11-12T01:13:11.503Z,101581.53
2022-11-12T01:15:58.667Z,101577.16
2022-11-12T01:18:46.537Z,101571.97
2022-11-12T01:21:38.046Z,101588.41
2022-11-12T01:24:25.282Z,101576.25
2022-11-12T01:27:14.477Z,101583.25
2022-11-12T01:30:01.589Z,101583.13
2022-11-12T01:32:49.443Z,101578.72
2022-11-12T01:35:36.720Z,101575.22
2022-11-12T01:38:24.274Z,101578.66
2022-11-12T01:41:13.890Z,101586.41
2022-11-12T01:44:26.843Z,101578.53
2022-11-12T01:47:20.298Z,101587.09
2022-11-12T01:50:18.937Z,101584.38
2022-11-12T01:53:10.643Z,101593.84
2022-11-12T01:55:59.156Z,101582.50
2022-11-12T01:58:48.250Z,101586.88
2022-11-12T02:01:38.556Z,101590.16
2022-11-12T02:04:28.004Z,101592.72
2022-11-12T02:07:15.359Z,101592.63
2022-11-12T02:10:05.151Z,101586.53
2022-11-12T02:13:11.740Z,101585.63
2022-11-12T02:15:59.454Z,101578.56
2022-11-12T02:18:47.757Z,101579.34
2022-11-12T02:21:36.914Z,101568.09
2022-11-12T02:24:36.893Z,101570.69
2022-11-12T02:27:25.469Z,101566.28
2022-11-12T02:30:13.632Z,101568.88
2022-11-12T02:33:01.283Z,101573.06
2022-11-12T02:35:49.032Z,101573.06
2022-11-12T02:38:37.408Z,101573.84
2022-11-12T02:41:24.661Z,101574.75
2022-11-12T02:44:11.561Z,101579.81
2022-11-12T02:46:59.236Z,101574.53
2022-11-12T02:49:46.391Z,101578.03
2022-11-12T02:52:33.804Z,101578.81
2022-11-12T02:55:22.458Z,101580.50
2022-11-12T02:58:09.824Z,101563.97
2022-11-12T03:00:59.363Z,101563.97
2022-11-12T03:03:46.105Z,101563.84
2022-11-12T03:06:33.483Z,101574.06
2022-11-12T03:09:21.150Z,101583.50
2022-11-12T03:12:09.652Z,101573.97
2022-11-12T03:14:56.441Z,101572.06
2022-11-12T03:17:43.432Z,101572.75
2022-11-12T03:20:31.294Z,101573.53
2022-11-12T03:23:19.106Z,101579.50
2022-11-12T03:26:06.852Z,101575.91
2022-11-12T03:28:55.686Z,101573.09
2022-11-12T03:31:43.176Z,101571.28
2022-11-12T03:34:30.255Z,101578.16
2022-11-12T03:37:17.819Z,101568.47
2022-11-12T03:40:06.041Z,101569.28
2022-11-12T03:42:53.958Z,101563.88
2022-11-12T03:45:42.460Z,101561.28
2022-11-12T03:48:29.926Z,101560.31
2022-11-12T03:51:18.613Z,101558.50
2022-11-12T03:54:06.059Z,101556.56
2022-11-12T03:56:53.061Z,101550.41
2022-11-12T03:59:40.307Z,101550.28
2022-11-12T04:02:30.120Z,101538.91
2022-11-12T04:05:35.631Z,101544.88
2022-11-12T04:08:39.871Z,101539.50
2022-11-12T04:11:26.993Z,101540.16
2022-11-12T04:14:12.778Z,101537.50
2022-11-12T04:17:22.596Z,101534.00
2022-11-12T04:20:29.134Z,101536.47
2022-11-12T04:23:16.680Z,101535.44
2022-11-12T04:26:21.223Z,101523.31
2022-11-12T04:29:25.651Z,101525.81
2022-11-12T04:32:13.260Z,101528.28
2022-11-12T04:35:00.984Z,101519.59
2022-11-12T04:37:50.073Z,101520.50
2022-11-12T04:40:54.830Z,101521.28
2022-11-12T04:43:59.533Z,101520.31
2022-11-12T04:46:46.612Z,101519.28
2022-11-12T04:49:33.562Z,101519.28
2022-11-12T04:52:20.500Z,101519.28
2022-11-12T04:55:10.866Z,101516.69
2022-11-12T04:58:00.787Z,101514.78
2022-11-12T05:00:49.033Z,101513.00
2022-11-12T05:03:37.116Z,101504.22
2022-11-12T05:06:41.753Z,101499.84
2022-11-12T05:09:30.503Z,101508.25
2022-11-12T05:12:18.856Z,101506.50
2022-11-12T05:15:08.291Z,101503.66
2022-11-12T05:17:55.355Z,101497.50
2022-11-12T05:20:42.519Z,101487.25
2022-11-12T05:23:29.648Z,101490.59
2022-11-12T05:26:16.989Z,101490.53
2022-11-12T05:29:08.706Z,101490.53
2022-11-12T05:31:56.187Z,101487.81
2022-11-12T05:34:43.989Z,101490.28
2022-11-12T05:37:31.485Z,101484.13
2022-11-12T05:40:18.850Z,101488.50
2022-11-12T05:43:05.736Z,101484.91
2022-11-12T05:45:54.654Z,101485.69
2022-11-12T05:48:41.618Z,101487.25
2022-11-12T05:51:28.789Z,101482.91
2022-11-12T05:54:16.347Z,101475.94
2022-11-12T05:57:04.090Z,101485.38
2022-11-12T05:59:50.925Z,101477.50
2022-11-12T06:02:39.415Z,101490.31
2022-11-12T06:05:26.974Z,101484.91
2022-11-12T06:08:13.929Z,101475.47
2022-11-12T06:11:01.128Z,101486.50
2022-11-12T06:13:48.254Z,101482.09
2022-11-12T06:16:35.680Z,101486.38
2022-11-12T06:19:24.212Z,101494.13
2022-11-12T06:22:11.256Z,101501.78
2022-11-12T06:24:58.302Z,101499.09
2022-11-12T06:27:45.826Z,101502.44
2022-11-12T06:30:32.911Z,101500.66
2022-11-12T06:33:20.141Z,101507.50
2022-11-12T06:36:11.604Z,101512.66
2022-11-12T06:42:03.650Z,101513.94
2022-11-12T06:44:51.098Z,101514.84
2022-11-12T06:47:38.321Z,101514.72
2022-11-12T06:50:25.674Z,101515.63
2022-11-12T06:53:14.129Z,101519.88
2022-11-12T06:56:04.533Z,101516.41
2022-11-12T06:58:51.591Z,101510.31
2022-11-12T07:01:38.982Z,101507.59
2022-11-12T07:04:26.361Z,101524.00
2022-11-12T07:07:13.489Z,101532.53
2022-11-12T07:10:01.955Z,101527.16
2022-11-12T07:12:53.408Z,101539.94
2022-11-12T07:15:40.920Z,101533.88
2022-11-12T07:18:28.696Z,101528.72
2022-11-12T07:21:18.694Z,101537.03
2022-11-12T07:24:06.634Z,101542.19
2022-11-12T07:26:55.669Z,101534.31
2022-11-12T07:29:48.161Z,101539.38
2022-11-12T07:32:41.942Z,101541.09
2022-11-12T07:35:32.048Z,101541.09
2022-11-12T07:38:19.252Z,101536.78
2022-11-12T07:41:09.150Z,101532.50
2022-11-12T07:43:57.367Z,101532.63
2022-11-12T07:46:44.401Z,101532.50
2022-11-12T07:49:31.557Z,101535.22
2022-11-12T07:52:18.616Z,101539.63
2022-11-12T07:55:06.993Z,101542.19
2022-11-12T07:57:54.306Z,101542.41
2022-11-12T08:00:43.132Z,101544.09
2022-11-12T08:03:30.329Z,101549.38
2022-11-12T08:06:17.503Z,101551.97
2022-11-12T08:09:07.693Z,101551.97
2022-11-12T08:11:55.743Z,101548.59
2022-11-12T08:14:42.566Z,101553.78
2022-11-12T08:17:31.545Z,101553.00
2022-11-12T08:20:18.477Z,101559.16
2022-11-12T08:23:05.831Z,101557.59
2022-11-12T08:25:53.082Z,101553.50
2022-11-12T08:28:41.143Z,101550.13
2022-11-12T08:31:28.397Z,101549.44
2022-11-12T08:34:21.575Z,101541.81
2022-11-12T08:37:09.791Z,101552.34
2022-11-12T08:39:57.031Z,101548.19
2022-11-12T08:42:43.900Z,101554.59
2022-11-12T08:45:33.234Z,101553.03
2022-11-12T08:48:20.688Z,101547.09
2022-11-12T08:51:10.045Z,101542.13
2022-11-12T08:53:57.417Z,101544.97
2022-11-12T08:56:44.261Z,101545.06
2022-11-12T08:59:31.253Z,101539.22
2022-11-12T09:02:18.304Z,101538.44
2022-11-12T09:05:07.129Z,101543.81
2022-11-12T09:08:05.038Z,101552.59
2022-11-12T09:10:53.341Z,101537.06
2022-11-12T09:13:40.681Z,101538.19
2022-11-12T09:16:27.845Z,101542.69
2022-11-12T09:19:14.783Z,101546.28
2022-11-12T09:22:01.944Z,101544.72
2022-11-12T09:24:51.188Z,101540.66
2022-11-12T09:27:38.120Z,101530.53
2022-11-12T09:30:26.365Z,101543.78
2022-11-12T09:33:14.128Z,101542.22
2022-11-12T09:36:02.923Z,101542.44
2022-11-12T09:38:49.994Z,101551.22
2022-11-12T09:41:40.818Z,101542.88
2022-11-12T09:44:30.681Z,101546.56
2022-11-12T09:47:29.322Z,101548.50
2022-11-12T09:50:22.991Z,101548.69
2022-11-12T09:53:17.943Z,101552.53
2022-11-12T09:56:12.251Z,101550.28
2022-11-12T09:59:01.130Z,101545.19
2022-11-12T10:02:02.546Z,101553.38
2022-11-12T10:05:12.741Z,101559.69
2022-11-12T10:08:33.193Z,101551.22
2022-11-12T10:12:09.954Z,101541.22
2022-11-12T10:15:59.832Z,101548.44
2022-11-12T10:19:09.803Z,101537.50
2022-11-12T10:22:08.154Z,101534.44
2022-11-12T10:24:56.790Z,101532.16
2022-11-12T10:27:45.041Z,101522.94
2022-11-12T10:30:31.959Z,101531.91
2022-11-12T10:33:20.451Z,101535.72
2022-11-12T10:36:21.559Z,101524.88
2022-11-12T10:39:08.543Z,101520.91
2022-11-12T10:42:07.178Z,101531.78
2022-11-12T10:44:54.268Z,101532.00
2022-11-12T10:47:43.775Z,101529.72
2022-11-12T10:50:41.642Z,101530.22
2022-11-12T10:53:35.380Z,101515.88
2022-11-12T10:56:29.963Z,101518.91
2022-11-12T10:59:19.844Z,101521.72
2022-11-12T11:02:19.283Z,101525.69
2022-11-12T11:05:33.185Z,101518.22
2022-11-12T11:08:37.046Z,101509.88
2022-11-12T11:11:28.312Z,101510.28
2022-11-12T11:14:35.737Z,101509.81
2022-11-12T11:17:22.662Z,101506.63
2022-11-12T11:20:21.100Z,101508.81
2022-11-12T11:23:21.184Z,101490.97
2022-11-12T11:26:28.755Z,101495.53
2022-11-12T11:29:32.006Z,101489.75
2022-11-12T11:32:40.353Z,101489.22
2022-11-12T11:35:43.499Z,101484.25
2022-11-12T11:38:47.658Z,101489.84
2022-11-12T11:41:53.585Z,101472.69
2022-11-12T11:44:52.976Z,101477.25
2022-11-12T11:48:02.248Z,101474.84
2022-11-12T11:51:01.862Z,101469.88
2022-11-12T11:54:00.477Z,101470.94
2022-11-12T11:56:52.775Z,101471.16
2022-11-12T11:59:58.468Z,101470.44
2022-11-12T12:03:17.919Z,101467.03
2022-11-12T12:06:21.348Z,101473.31
2022-11-12T12:09:28.380Z,101469.13
2022-11-12T12:12:39.066Z,101467.59
2022-11-12T12:15:48.763Z,101459.13
2022-11-12T12:18:45.426Z,101463.59
2022-11-12T12:21:36.289Z,101454.22
2022-11-12T12:24:29.454Z,101454.41
2022-11-12T12:27:20.412Z,101453.69
2022-11-12T12:30:16.794Z,101454.81
2022-11-12T12:33:19.956Z,101449.03
2022-11-12T12:36:12.867Z,101450.88
2022-11-12T12:39:14.512Z,101439.81
2022-11-12T12:42:07.292Z,101436.47
2022-11-12T12:45:04.786Z,101440.06
2022-11-12T12:47:53.415Z,101441.97
2022-11-12T12:50:42.601Z,101435.16
2022-11-12T12:53:35.259Z,101436.25
2022-11-12T12:56:47.260Z,101438.06
2022-11-12T12:59:35.797Z,101433.72
2022-11-12T13:02:25.634Z,101432.13
2022-11-12T13:05:32.250Z,101429.63
2022-11-12T13:08:24.988Z,101434.09
2022-11-12T13:11:12.294Z,101433.31
2022-11-12T13:15:08.173Z,101430.91
2022-11-12T13:17:57.033Z,101428.38
2022-11-12T13:21:08.278Z,101434.69
2022-11-12T13:24:11.116Z,101430.44
2022-11-12T13:26:59.306Z,101428.75
2022-11-12T13:29:48.360Z,101427.16
2022-11-12T13:32:39.640Z,101430.91
2022-11-12T13:35:31.727Z,101443.22
2022-11-12T13:38:20.193Z,101429.38
2022-11-12T13:41:19.462Z,101436.56
2022-11-12T13:44:13.938Z,101430.66
2022-11-12T13:47:02.044Z,101428.94
2022-11-12T13:49:50.103Z,101428.06
2022-11-12T13:52:41.819Z,101435.03
2022-11-12T13:55:31.665Z,101429.16
2022-11-12T13:58:29.481Z,101425.56
2022-11-12T14:01:22.335Z,101434.34
2022-11-12T14:04:12.622Z,101432.66
2022-11-12T14:07:15.834Z,101420.50
2022-11-12T14:10:16.572Z,101423.22
2022-11-12T14:13:27.044Z,101417.91
2022-11-12T14:16:29.737Z,101424.91
2022-11-12T14:19:55.667Z,101418.75
2022-11-12T14:22:44.365Z,101415.16
2022-11-12T14:25:33.123Z,101418.75
2022-11-12T14:28:29.046Z,101417.06
2022-11-12T14:31:16.994Z,101412.66
2022-11-12T14:34:23.285Z,101411.84
2022-11-12T14:37:38.403Z,101403.16
2022-11-12T14:40:33.620Z,101403.97
2022-11-12T14:43:38.638Z,101411.84
2022-11-12T14:46:30.705Z,101408.34
2022-11-12T14:49:23.890Z,101405.75
2022-11-12T14:52:15.877Z,101396.97
2022-11-12T14:55:11.027Z,101400.47
2022-11-12T14:58:01.363Z,101401.34
2022-11-12T15:00:51.026Z,101396.97
2022-11-12T15:03:38.535Z,101393.47
2022-11-12T15:06:32.018Z,101387.38
2022-11-12T15:09:22.166Z,101395.97
2022-11-12T15:12:14.222Z,101386.41
2022-11-12T15:15:19.214Z,101388.91
2022-11-12T15:18:13.652Z,101375.72
2022-11-12T15:21:17.342Z,101378.25
2022-11-12T15:24:15.742Z,101376.44
2022-11-12T15:27:36.106Z,101371.88
2022-11-12T15:30:26.222Z,101372.69
2022-11-12T15:33:22.849Z,101371.78
2022-11-12T15:36:18.425Z,101372.59
2022-11-12T15:39:13.683Z,101374.13
2022-11-12T15:42:03.352Z,101372.22
2022-11-12T15:44:56.641Z,101360.84
2022-11-12T15:47:43.650Z,101370.25
2022-11-12T15:50:32.852Z,101369.38
2022-11-12T15:53:20.368Z,101370.00
2022-11-12T15:56:13.212Z,101366.41
2022-11-12T15:59:00.415Z,101368.78
2022-11-12T16:01:49.391Z,101362.63
2022-11-12T16:04:36.486Z,101371.22
2022-11-12T16:07:23.972Z,101365.94
2022-11-12T16:10:15.735Z,101366.72
2022-11-12T16:13:05.145Z,101367.47
2022-11-12T16:15:53.120Z,101357.78
2022-11-12T16:18:41.423Z,101359.47
2022-11-12T16:21:28.438Z,101362.91
2022-11-12T16:24:15.288Z,101370.50
2022-11-12T16:27:07.475Z,101363.50
2022-11-12T16:29:54.618Z,101365.03
2022-11-12T16:32:41.467Z,101365.78
2022-11-12T16:35:30.933Z,101350.09
2022-11-12T16:38:19.329Z,101353.44
2022-11-12T16:41:06.919Z,101354.34
2022-11-12T16:43:53.805Z,101355.03
2022-11-12T16:46:41.268Z,101349.84
2022-11-12T16:49:28.129Z,101350.63
2022-11-12T16:52:17.736Z,101359.31
2022-11-12T16:55:05.829Z,101360.94
2022-11-12T16:57:53.210Z,101358.34
2022-11-12T17:00:40.024Z,101356.56
2022-11-12T17:03:27.249Z,101349.56
2022-11-12T17:06:14.364Z,101345.16
2022-11-12T17:09:03.420Z,101348.56
2022-11-12T17:11:50.752Z,101347.59
2022-11-12T17:14:38.015Z,101345.81
2022-11-12T17:17:25.290Z,101342.31
2022-11-12T17:20:12.753Z,101336.91
2022-11-12T17:23:00.437Z,101329.84
2022-11-12T17:25:49.047Z,101334.16
2022-11-12T17:28:36.144Z,101341.75
2022-11-12T17:31:24.564Z,101335.56
2022-11-12T17:34:12.014Z,101351.03
2022-11-12T17:36:59.203Z,101345.84
2022-11-12T17:39:46.181Z,101339.59
2022-11-12T17:42:34.852Z,101348.16
2022-11-12T17:45:21.937Z,101339.38
2022-11-12T17:48:08.976Z,101335.81
2022-11-12T17:51:08.462Z,101333.22
2022-11-12T17:53:56.513Z,101331.31
2022-11-12T17:56:43.700Z,101330.31
2022-11-12T17:59:32.450Z,101325.13
2022-11-12T18:02:20.156Z,101329.34
2022-11-12T18:05:07.680Z,101331.84
2022-11-12T18:07:54.703Z,101330.84
2022-11-12T18:10:45.500Z,101331.69
2022-11-12T18:13:32.666Z,101331.69
2022-11-12T18:16:23.813Z,101325.59
2022-11-12T18:19:12.755Z,101328.97
2022-11-12T18:22:02.096Z,101317.59
2022-11-12T18:24:48.988Z,101318.59
2022-11-12T18:27:36.843Z,101314.09
2022-11-12T18:30:24.621Z,101318.59
2022-11-12T18:33:13.674Z,101318.59
2022-11-12T18:36:06.186Z,101318.59
2022-11-12T18:38:54.729Z,101320.41
2022-11-12T18:41:42.359Z,101308.22
2022-11-12T18:44:29.143Z,101314.31
2022-11-12T18:47:16.428Z,101310.03
2022-11-12T18:50:08.886Z,101301.34
2022-11-12T18:52:56.471Z,101295.25
2022-11-12T18:55:43.913Z,101294.25
2022-11-12T18:58:35.115Z,101292.66
2022-11-12T19:01:24.341Z,101295.25
2022-11-12T19:04:12.768Z,101291.66
2022-11-12T19:07:01.762Z,101288.16
2022-11-12T19:09:49.188Z,101288.16
2022-11-12T19:12:36.952Z,101283.88
2022-11-12T19:15:26.977Z,101282.16
2022-11-12T19:18:15.253Z,101285.66
2022-11-12T19:21:04.380Z,101282.06
2022-11-12T19:23:55.411Z,101282.06
2022-11-12T19:26:42.692Z,101278.50
2022-11-12T19:29:31.938Z,101281.91
2022-11-12T19:32:18.992Z,101280.09
2022-11-12T19:35:07.562Z,101274.91
2022-11-12T19:37:54.583Z,101275.72
2022-11-12T19:40:43.372Z,101277.41
2022-11-12T19:43:30.227Z,101284.28
2022-11-12T19:46:17.712Z,101280.81
2022-11-12T19:49:04.812Z,101273.84
2022-11-12T19:51:52.074Z,101276.44
2022-11-12T19:54:39.053Z,101277.34
2022-11-12T19:57:27.805Z,101285.91
2022-11-12T20:00:16.839Z,101276.34
2022-11-12T20:03:03.758Z,101277.13
2022-11-12T20:05:52.406Z,101269.34
2022-11-12T20:08:39.481Z,101281.41
2022-11-12T20:11:26.524Z,101274.44
2022-11-12T20:14:15.043Z,101271.03
2022-11-12T20:17:02.287Z,101270.97
2022-11-12T20:19:49.161Z,101269.19
2022-11-12T20:22:36.845Z,101257.00
2022-11-12T20:25:24.003Z,101252.72
2022-11-12T20:28:11.448Z,101264.69
2022-11-12T20:31:06.168Z,101256.09
2022-11-12T20:33:53.680Z,101256.91
2022-11-12T20:36:40.754Z,101253.41
2022-11-12T20:39:28.311Z,101258.59
2022-11-12T20:42:16.334Z,101255.94
2022-11-12T20:45:03.465Z,101249.84
2022-11-12T20:47:52.316Z,101255.03
2022-11-12T20:50:41.789Z,101250.53
2022-11-12T20:53:38.962Z,101250.53
2022-11-12T20:56:28.098Z,101247.84
2022-11-12T20:59:14.876Z,101246.88
2022-11-12T21:02:01.918Z,101248.56
2022-11-12T21:04:53.992Z,101247.66
2022-11-12T21:07:41.691Z,101251.16
2022-11-12T21:10:29.522Z,101244.28
2022-11-12T21:13:18.183Z,101244.28
2022-11-12T21:16:06.485Z,101241.69
2022-11-12T21:18:53.586Z,101244.19
2022-11-12T21:21:42.711Z,101236.41
2022-11-12T21:24:29.540Z,101235.50
2022-11-12T21:27:16.812Z,101238.88
2022-11-12T21:30:04.378Z,101226.81
2022-11-12T21:32:51.146Z,101228.41
2022-11-12T21:35:38.153Z,101230.13
2022-11-12T21:38:27.350Z,101232.72
2022-11-12T21:41:18.414Z,101230.94
2022-11-12T21:44:05.956Z,101220.34
2022-11-12T21:46:53.278Z,101222.06
2022-11-12T21:49:40.484Z,101222.88
2022-11-12T21:52:27.848Z,101222.78
2022-11-12T21:55:16.487Z,101218.50
2022-11-12T21:58:04.047Z,101206.22
2022-11-12T22:00:51.363Z,101210.44
2022-11-12T22:03:40.155Z,101209.50
2022-11-12T22:06:29.584Z,101202.53
2022-11-12T22:09:16.676Z,101206.81
2022-11-12T22:12:05.654Z,101209.31
2022-11-12T22:14:52.631Z,101211.78
2022-11-12T22:17:39.433Z,101207.44
2022-11-12T22:20:26.472Z,101197.84
2022-11-12T22:23:13.864Z,101211.63
2022-11-12T22:26:01.509Z,101205.53
2022-11-12T22:28:50.355Z,101199.44
2022-11-12T22:31:38.296Z,101195.06
2022-11-12T22:34:25.592Z,101196.75
2022-11-12T22:37:12.849Z,101199.28
2022-11-12T22:40:00.464Z,101197.47
2022-11-12T22:42:47.929Z,101202.56
2022-11-12T22:45:37.566Z,101196.47
2022-11-12T22:48:25.377Z,101186.84
2022-11-12T22:51:16.515Z,101194.59
2022-11-12T22:54:06.907Z,101187.53
2022-11-12T22:56:54.281Z,101192.72
2022-11-12T22:59:41.220Z,101195.13
2022-11-12T23:02:29.663Z,101188.16
2022-11-12T23:05:16.697Z,101178.56
2022-11-12T23:08:03.759Z,101183.66
2022-11-12T23:10:51.219Z,101180.97
2022-11-12T23:13:39.383Z,101186.13
2022-11-12T23:16:30.036Z,101181.78
2022-11-12T23:19:18.877Z,101172.13
2022-11-12T23:22:08.016Z,101174.69
2022-11-12T23:24:55.157Z,101175.50
2022-11-12T23:27:42.252Z,101170.25
2022-11-12T23:30:29.439Z,101171.94
2022-11-12T23:33:16.654Z,101161.56
2022-11-12T23:36:10.724Z,101161.56
2022-11-12T23:38:58.287Z,101159.66
2022-11-12T23:41:45.656Z,101156.00
2022-11-12T23:44:33.211Z,101166.44
2022-11-12T23:47:20.459Z,101155.22
2022-11-12T23:50:08.944Z,101154.22
2022-11-12T23:52:57.434Z,101157.69
2022-11-12T23:55:45.145Z,101157.59
2022-11-12T23:58:33.217Z,101158.38
